Time;durP1;ratioP1;P1;durP2;ratioP2;P2;SDS_P1;SDS_P2;PMS_P1;PMS_P2;Temp;Humidity;BMP_temperature;BMP_pressure;BME280_temperature;BME280_humidity;BME280_pressure;Samples;Min_cycle;Max_cycle;Signal;HPM_P1;HPM_P2
2021/12/27 00:00:36;;;;;;;16.87;15.10;;;;;;;4.77;64.06;101097.97;5090604;28;20393;-65
2021/12/27 00:03:04;;;;;;;16.00;14.20;;;;;;;4.69;63.79;101108.88;5090154;28;20875;-65
2021/12/27 00:05:32;;;;;;;18.05;16.10;;;;;;;4.77;64.28;101105.84;5089898;28;20979;-65
2021/12/27 00:07:59;;;;;;;17.23;15.43;;;;;;;4.73;64.12;101096.44;5090337;28;20419;-65
2021/12/27 00:10:28;;;;;;;15.57;13.90;;;;;;;4.41;64.26;101093.69;5090288;28;20777;-65
2021/12/27 00:12:55;;;;;;;16.88;14.90;;;;;;;4.43;64.93;101096.25;5089978;28;20421;-66
2021/12/27 00:15:22;;;;;;;17.55;14.35;;;;;;;4.36;65.07;101095.69;5090226;28;20500;-64
2021/12/27 00:17:49;;;;;;;15.40;13.80;;;;;;;4.37;65.12;101100.84;5089917;28;20492;-65
2021/12/27 00:20:19;;;;;;;17.33;15.52;;;;;;;4.45;64.64;101103.09;5089896;28;20425;-65
2021/12/27 00:22:48;;;;;;;18.65;15.38;;;;;;;4.38;65.06;101094.69;5089922;28;20412;-64
2021/12/27 00:25:16;;;;;;;16.75;14.80;;;;;;;4.26;65.16;101078.72;5090125;28;20401;-65
2021/12/27 00:27:44;;;;;;;17.52;14.82;;;;;;;4.22;65.72;101073.66;5089744;28;20500;-64
2021/12/27 00:30:12;;;;;;;17.00;14.77;;;;;;;4.41;65.32;101083.19;5090324;28;20487;-65
2021/12/27 00:32:43;;;;;;;16.70;14.73;;;;;;;4.27;65.51;101083.06;5089704;28;20911;-64
2021/12/27 00:35:11;;;;;;;17.00;14.05;;;;;;;4.33;65.34;101080.97;5088516;28;20445;-65
2021/12/27 00:37:38;;;;;;;16.55;14.75;;;;;;;4.43;65.00;101094.47;5089878;28;20401;-65
2021/12/27 00:40:09;;;;;;;15.98;14.00;;;;;;;4.33;65.41;101085.38;5089859;28;20440;-65
2021/12/27 00:42:36;;;;;;;15.75;14.07;;;;;;;4.35;65.41;101086.13;5089642;28;20484;-65
2021/12/27 00:45:04;;;;;;;16.73;14.93;;;;;;;4.49;65.22;101094.16;5089420;28;20416;-65
2021/12/27 00:47:31;;;;;;;18.67;14.73;;;;;;;4.53;65.04;101090.44;5075127;28;20425;-65
2021/12/27 00:49:58;;;;;;;18.20;14.30;;;;;;;4.48;64.81;101099.47;5087892;28;20476;-65
2021/12/27 00:52:26;;;;;;;19.70;15.10;;;;;;;4.57;64.78;101107.72;5089316;28;20484;-65
2021/12/27 00:54:53;;;;;;;18.77;14.63;;;;;;;4.35;65.45;101102.72;5089170;28;20790;-65
2021/12/27 00:57:21;;;;;;;18.13;14.05;;;;;;;4.16;65.91;101108.03;5089227;28;20409;-65
2021/12/27 00:59:48;;;;;;;18.13;14.50;;;;;;;4.11;66.16;101117.91;5089231;28;20431;-65
2021/12/27 01:02:17;;;;;;;20.08;15.25;;;;;;;4.25;65.72;101108.50;5088369;28;21326;-64
2021/12/27 01:04:44;;;;;;;19.05;14.65;;;;;;;4.17;66.23;101119.38;5088739;28;20883;-64
2021/12/27 01:07:11;;;;;;;20.88;14.30;;;;;;;4.17;66.08;101124.63;5089150;28;21500;-65
2021/12/27 01:09:52;;;;;;;21.55;14.52;;;;;;;4.25;65.99;101116.38;5089091;28;20438;-65
2021/12/27 01:12:31;;;;;;;21.25;14.93;;;;;;;4.25;65.91;101119.00;5088675;28;20907;-65
2021/12/27 01:15:12;;;;;;;20.83;16.13;;;;;;;4.52;65.33;101130.72;5088698;28;20463;-65
2021/12/27 01:17:43;;;;;;;23.10;16.10;;;;;;;4.58;65.30;101117.31;5088966;28;20474;-64
2021/12/27 01:20:13;;;;;;;23.60;16.00;;;;;;;4.33;65.98;101103.72;5088519;28;20425;-65
2021/12/27 01:22:40;;;;;;;23.65;16.45;;;;;;;4.43;65.97;101111.97;5089017;28;20413;-64
2021/12/27 01:25:09;;;;;;;20.20;15.23;;;;;;;4.41;65.76;101101.56;5088760;28;20981;-65
2021/12/27 01:27:37;;;;;;;24.00;16.27;;;;;;;4.40;65.66;101107.75;5088530;28;20786;-65
2021/12/27 01:30:07;;;;;;;26.60;18.25;;;;;;;4.43;66.10;101102.34;5088543;28;20423;-65
2021/12/27 01:32:38;;;;;;;25.40;17.83;;;;;;;4.44;66.19;101111.03;5088777;28;21030;-65
2021/12/27 01:35:08;;;;;;;25.60;17.15;;;;;;;4.34;66.17;101115.91;5087363;28;20405;-65
2021/12/27 01:37:35;;;;;;;27.73;18.35;;;;;;;4.46;66.25;101110.06;5088099;28;20902;-64
2021/12/27 01:40:02;;;;;;;26.30;18.65;;;;;;;4.46;66.12;101102.19;5088218;28;20528;-64
2021/12/27 01:42:29;;;;;;;26.40;18.70;;;;;;;4.34;66.38;101090.53;5088363;28;20402;-65
2021/12/27 01:44:57;;;;;;;29.00;20.07;;;;;;;4.43;66.32;101094.47;5088417;28;20437;-65
2021/12/27 01:47:26;;;;;;;30.63;19.35;;;;;;;4.25;66.54;101082.28;5073277;28;20421;-65
2021/12/27 01:49:53;;;;;;;28.55;19.00;;;;;;;4.32;66.59;101083.66;5088367;28;20416;-65
2021/12/27 01:52:20;;;;;;;27.08;17.80;;;;;;;4.16;66.81;101084.44;5087785;28;20910;-64
2021/12/27 01:54:47;;;;;;;27.77;18.98;;;;;;;4.36;66.86;101093.06;5087905;28;20508;-65
2021/12/27 01:57:14;;;;;;;26.00;17.47;;;;;;;4.25;67.02;101084.91;5087945;28;20561;-64
2021/12/27 01:59:41;;;;;;;28.48;17.92;;;;;;;4.14;66.99;101083.66;5087995;28;20945;-65
2021/12/27 02:02:09;;;;;;;28.98;17.80;;;;;;;3.92;67.65;101088.28;5087725;28;20906;-64
2021/12/27 02:04:36;;;;;;;31.52;18.00;;;;;;;3.90;67.84;101090.97;5087832;28;20445;-64
2021/12/27 02:07:04;;;;;;;29.23;18.23;;;;;;;4.00;68.00;101088.75;5088128;28;20496;-64
2021/12/27 02:09:42;;;;;;;29.40;17.85;;;;;;;3.80;68.10;101092.34;5088018;28;20508;-64
2021/12/27 02:12:11;;;;;;;30.83;19.30;;;;;;;3.88;67.99;101095.44;5088001;28;20520;-64
2021/12/27 02:14:38;;;;;;;31.20;19.47;;;;;;;4.04;67.89;101100.78;5088243;28;20496;-64
2021/12/27 02:17:04;;;;;;;35.58;20.05;;;;;;;4.15;67.62;101100.25;5087937;28;20413;-65
2021/12/27 02:19:36;;;;;;;32.40;19.33;;;;;;;4.15;67.40;101111.56;5087721;28;20456;-64
2021/12/27 02:22:05;;;;;;;30.77;20.15;;;;;;;4.00;67.66;101107.09;5087758;28;20441;-64
2021/12/27 02:24:33;;;;;;;30.52;19.35;;;;;;;3.97;67.86;101091.50;5087555;28;20437;-64
2021/12/27 02:26:59;;;;;;;33.97;20.77;;;;;;;4.01;68.02;101095.69;5087524;28;20401;-64
2021/12/27 02:29:26;;;;;;;37.17;22.63;;;;;;;3.97;67.95;101117.72;5087529;28;20416;-64
2021/12/27 02:31:53;;;;;;;31.93;20.40;;;;;;;4.10;67.59;101097.03;5087989;28;20415;-64
2021/12/27 02:34:20;;;;;;;29.55;19.63;;;;;;;4.13;67.19;101108.19;5087792;28;20446;-64
2021/12/27 02:36:49;;;;;;;33.08;19.90;;;;;;;4.14;67.21;101104.66;5087983;28;20914;-65
2021/12/27 02:39:17;;;;;;;32.08;20.20;;;;;;;4.16;67.35;101102.78;5087691;28;20425;-64
2021/12/27 02:41:44;;;;;;;31.50;20.83;;;;;;;4.10;67.33;101090.00;5087951;28;20429;-64
2021/12/27 02:44:11;;;;;;;33.65;20.73;;;;;;;4.09;67.52;101093.53;5087326;28;20492;-64
2021/12/27 02:46:38;;;;;;;36.37;22.07;;;;;;;4.14;67.37;101090.69;5073315;28;20485;-64
2021/12/27 02:49:05;;;;;;;35.50;22.42;;;;;;;4.05;67.57;101091.16;5087615;28;20492;-65
2021/12/27 02:51:32;;;;;;;37.88;23.52;;;;;;;3.98;67.66;101086.19;5087150;28;20420;-64
2021/12/27 02:53:59;;;;;;;43.33;25.75;;;;;;;3.86;68.49;101086.81;5087525;28;20910;-64
2021/12/27 02:56:29;;;;;;;44.42;25.50;;;;;;;4.07;68.33;101084.03;5087289;28;20423;-64
2021/12/27 02:58:57;;;;;;;40.03;23.40;;;;;;;4.16;67.49;101081.81;5091037;28;20419;-64
2021/12/27 03:01:25;;;;;;;38.28;21.95;;;;;;;3.85;68.80;101089.50;5091142;28;20495;-64
2021/12/27 03:03:53;;;;;;;38.90;22.85;;;;;;;3.88;68.60;101084.97;5091181;28;20570;-64
2021/12/27 03:06:20;;;;;;;37.00;21.38;;;;;;;3.89;68.60;101094.50;5091139;28;20496;-64
2021/12/27 03:08:49;;;;;;;36.25;21.23;;;;;;;3.94;68.42;101086.44;5091459;28;20409;-65
2021/12/27 03:11:16;;;;;;;34.58;21.15;;;;;;;3.86;68.87;101065.00;5091269;28;20965;-64
2021/12/27 03:13:50;;;;;;;28.70;18.80;;;;;;;3.63;68.93;101058.25;5091064;28;20505;-65
2021/12/27 03:16:19;;;;;;;33.50;21.25;;;;;;;3.61;69.64;101071.44;5090878;28;20401;-64
2021/12/27 03:18:48;;;;;;;32.13;20.88;;;;;;;3.86;68.58;101076.31;5090816;28;20813;-64
2021/12/27 03:21:16;;;;;;;33.40;21.40;;;;;;;3.88;68.80;101081.50;5089387;28;20590;-65
2021/12/27 03:23:44;;;;;;;31.67;20.20;;;;;;;3.74;68.97;101083.00;5090745;28;20423;-64
2021/12/27 03:26:13;;;;;;;38.45;23.08;;;;;;;3.81;69.03;101083.53;5090706;28;20946;-64
2021/12/27 03:28:41;;;;;;;37.45;22.88;;;;;;;3.84;69.09;101083.41;5090838;28;20488;-65
2021/12/27 03:31:10;;;;;;;33.08;21.10;;;;;;;3.62;69.75;101075.72;5090705;28;20419;-65
2021/12/27 03:33:38;;;;;;;41.83;23.52;;;;;;;3.85;69.75;101073.75;5090727;28;20496;-64
2021/12/27 03:36:08;;;;;;;39.80;24.43;;;;;;;3.86;69.32;101076.31;5090492;28;20957;-64
2021/12/27 03:38:38;;;;;;;45.22;26.95;;;;;;;3.83;69.24;101080.84;5091071;28;20498;-64
2021/12/27 03:41:07;;;;;;;51.85;32.15;;;;;;;3.96;69.16;101089.84;5090762;28;20429;-65
2021/12/27 03:43:35;;;;;;;42.25;27.20;;;;;;;3.85;68.97;101073.75;5090609;28;20496;-65
2021/12/27 03:46:02;;;;;;;34.70;22.38;;;;;;;3.68;69.46;101082.47;5082479;28;20588;-65
2021/12/27 03:48:30;;;;;;;32.72;21.15;;;;;;;3.61;69.93;101077.50;5085242;28;20505;-65
2021/12/27 03:50:58;;;;;;;33.38;22.08;;;;;;;3.85;69.63;101071.16;5090518;28;20500;-65
2021/12/27 03:53:25;;;;;;;42.78;25.55;;;;;;;4.03;68.99;101058.91;5089971;28;20489;-65
2021/12/27 03:55:52;;;;;;;52.75;31.30;;;;;;;4.14;68.68;101057.44;5090577;28;20416;-64
2021/12/27 03:58:28;;;;;;;38.90;23.25;;;;;;;3.87;68.69;101066.69;5090431;28;20491;-64
2021/12/27 04:01:14;;;;;;;38.47;23.08;;;;;;;3.88;68.91;101071.00;5089967;28;20942;-65
2021/12/27 04:03:44;;;;;;;40.90;23.48;;;;;;;3.85;69.13;101058.88;5090461;28;20888;-65
2021/12/27 04:06:12;;;;;;;40.67;24.30;;;;;;;3.97;69.11;101078.41;5090110;28;20488;-64
2021/12/27 04:08:38;;;;;;;42.17;24.93;;;;;;;4.07;68.58;101084.88;5090412;28;20510;-65
2021/12/27 04:11:05;;;;;;;40.47;23.75;;;;;;;4.21;68.06;101074.56;5090413;28;20917;-65
2021/12/27 04:13:33;;;;;;;35.55;21.63;;;;;;;3.95;68.60;101077.63;5090592;28;21044;-65
2021/12/27 04:16:00;;;;;;;41.20;25.67;;;;;;;4.02;69.05;101079.03;5090043;28;20421;-65
2021/12/27 04:18:28;;;;;;;36.72;22.77;;;;;;;4.04;68.60;101074.56;5089858;28;20902;-66
2021/12/27 04:20:57;;;;;;;39.00;26.58;;;;;;;4.07;68.47;101069.16;5090250;28;20432;-65
2021/12/27 04:23:24;;;;;;;41.07;27.07;;;;;;;3.88;68.98;101065.78;5090126;28;20843;-65
2021/12/27 04:25:51;;;;;;;37.90;24.92;;;;;;;3.73;69.57;101059.50;5090638;28;20492;-66
2021/12/27 04:28:19;;;;;;;46.17;28.95;;;;;;;3.69;69.91;101050.94;5090091;28;20413;-65
2021/12/27 04:30:47;;;;;;;39.83;25.13;;;;;;;3.76;70.05;101054.94;5089705;28;21046;-65
2021/12/27 04:33:14;;;;;;;36.30;22.30;;;;;;;3.93;68.95;101058.50;5089684;28;20870;-65
2021/12/27 04:35:41;;;;;;;38.42;23.77;;;;;;;3.87;69.45;101045.72;5090306;28;20405;-65
2021/12/27 04:38:09;;;;;;;34.30;21.50;;;;;;;3.67;69.70;101039.69;5089532;28;20415;-66
2021/12/27 04:40:40;;;;;;;42.70;28.77;;;;;;;3.74;69.73;101055.97;5089324;28;20425;-65
2021/12/27 04:43:10;;;;;;;30.98;20.33;;;;;;;3.68;69.71;101064.97;5089450;28;20512;-65
2021/12/27 04:45:38;;;;;;;34.47;21.23;;;;;;;3.81;69.57;101076.56;5089479;28;20427;-66
2021/12/27 04:48:05;;;;;;;31.02;20.42;;;;;;;4.02;68.73;101071.19;5057645;28;20517;-66
2021/12/27 04:50:32;;;;;;;32.83;20.88;;;;;;;3.92;68.93;101070.78;5071126;28;20406;-66
2021/12/27 04:52:59;;;;;;;31.15;20.25;;;;;;;3.79;68.91;101074.91;5070650;28;20417;-66
2021/12/27 04:55:29;;;;;;;32.05;19.92;;;;;;;3.76;69.16;101070.69;5071000;28;20498;-66
2021/12/27 04:57:56;;;;;;;29.42;18.27;;;;;;;3.65;69.72;101065.13;5070951;28;20482;-65
2021/12/27 05:00:23;;;;;;;31.27;20.50;;;;;;;3.67;69.49;101070.25;5070769;28;20506;-66
2021/12/27 05:02:50;;;;;;;30.33;19.70;;;;;;;3.52;69.54;101058.75;5070467;28;20489;-65
2021/12/27 05:05:17;;;;;;;31.30;20.20;;;;;;;3.60;69.83;101067.09;5070442;28;20513;-65
2021/12/27 05:07:44;;;;;;;32.25;20.70;;;;;;;3.57;69.79;101065.47;5069470;28;20855;-65
2021/12/27 05:10:12;;;;;;;33.78;21.25;;;;;;;3.56;69.83;101062.94;5068067;28;20777;-65
2021/12/27 05:12:40;;;;;;;35.17;22.40;;;;;;;3.72;69.75;101068.28;5070494;28;20837;-65
2021/12/27 05:15:07;;;;;;;33.70;21.50;;;;;;;3.58;69.71;101061.09;5070229;28;20788;-65
2021/12/27 05:17:34;;;;;;;43.58;28.98;;;;;;;3.69;69.74;101061.44;5070539;28;20419;-65
2021/12/27 05:20:04;;;;;;;42.65;26.92;;;;;;;3.74;69.70;101072.53;5069848;28;20502;-65
2021/12/27 05:22:32;;;;;;;39.70;24.83;;;;;;;3.74;69.83;101076.91;5070532;28;20494;-65
2021/12/27 05:24:59;;;;;;;40.70;24.65;;;;;;;3.79;69.51;101070.53;5070418;28;20408;-65
2021/12/27 05:27:26;;;;;;;52.50;32.60;;;;;;;3.86;69.61;101065.84;5070280;28;20498;-65
2021/12/27 05:29:54;;;;;;;46.42;30.33;;;;;;;4.11;68.41;101068.06;5070437;28;20490;-65
2021/12/27 05:32:21;;;;;;;35.90;22.97;;;;;;;4.13;68.42;101066.22;5070213;28;20478;-65
2021/12/27 05:34:48;;;;;;;33.58;20.88;;;;;;;3.94;68.68;101071.56;5070390;28;20439;-65
2021/12/27 05:37:15;;;;;;;35.65;22.42;;;;;;;3.84;69.00;101058.97;5069917;28;20414;-65
2021/12/27 05:39:42;;;;;;;30.33;18.63;;;;;;;3.82;68.80;101059.06;5069769;28;20530;-64
2021/12/27 05:42:09;;;;;;;26.35;17.85;;;;;;;3.81;68.81;101052.97;5070055;28;20935;-65
2021/12/27 05:44:36;;;;;;;27.20;18.55;;;;;;;3.60;69.36;101046.16;5070032;28;20618;-65
2021/12/27 05:47:05;;;;;;;25.30;16.75;;;;;;;3.69;69.36;101050.94;5066380;28;20866;-64
2021/12/27 05:49:32;;;;;;;23.52;16.15;;;;;;;3.65;69.44;101056.38;5089899;28;20496;-64
2021/12/27 05:51:59;;;;;;;26.37;17.17;;;;;;;3.81;69.07;101054.72;5090208;28;20532;-65
2021/12/27 05:54:26;;;;;;;26.50;17.23;;;;;;;3.63;69.66;101079.19;5090398;28;20484;-64
2021/12/27 05:56:53;;;;;;;29.73;17.63;;;;;;;3.64;69.71;101060.78;5089708;28;20989;-65
2021/12/27 05:59:20;;;;;;;25.88;16.30;;;;;;;3.49;69.82;101057.16;5089978;28;20488;-64
2021/12/27 06:01:47;;;;;;;29.23;17.33;;;;;;;3.61;70.00;101066.19;5089305;28;20425;-65
2021/12/27 06:04:16;;;;;;;22.80;15.07;;;;;;;3.51;69.55;101060.53;5089785;28;20409;-64
2021/12/27 06:06:43;;;;;;;27.52;15.40;;;;;;;3.59;69.66;101057.56;5089643;28;20419;-64
2021/12/27 06:09:10;;;;;;;29.07;17.80;;;;;;;3.72;69.69;101042.09;5089470;28;20413;-64
2021/12/27 06:11:37;;;;;;;27.75;16.25;;;;;;;3.76;69.49;101039.22;5089420;28;20411;-65
2021/12/27 06:14:03;;;;;;;26.70;15.50;;;;;;;3.73;69.73;101055.13;5089877;28;20404;-65
2021/12/27 06:16:30;;;;;;;23.85;14.50;;;;;;;3.65;69.39;101059.88;5089462;28;20791;-65
2021/12/27 06:18:57;;;;;;;25.67;16.40;;;;;;;3.61;69.58;101053.09;5089398;28;20401;-65
2021/12/27 06:21:26;;;;;;;25.13;15.90;;;;;;;3.56;69.72;101057.69;5089451;28;20413;-65
2021/12/27 06:23:53;;;;;;;23.10;15.32;;;;;;;3.52;69.68;101056.97;5089666;28;20484;-64
2021/12/27 06:26:20;;;;;;;26.50;16.10;;;;;;;3.53;69.50;101036.91;5089272;28;20413;-64
2021/12/27 06:28:47;;;;;;;27.20;17.55;;;;;;;3.46;70.08;101052.03;5088368;28;20489;-65
2021/12/27 06:31:14;;;;;;;26.63;16.40;;;;;;;3.52;70.27;101045.66;5087059;28;20485;-64
2021/12/27 06:33:41;;;;;;;25.37;15.80;;;;;;;3.63;69.54;101048.63;5087012;28;20409;-64
2021/12/27 06:36:08;;;;;;;27.55;15.73;;;;;;;3.82;68.91;101053.81;5088101;28;20412;-65
2021/12/27 06:38:36;;;;;;;21.75;15.38;;;;;;;3.80;68.93;101051.25;5087247;28;20500;-64
2021/12/27 06:41:04;;;;;;;22.88;14.93;;;;;;;3.80;68.81;101059.13;5087558;28;20508;-65
2021/12/27 06:43:31;;;;;;;27.90;16.08;;;;;;;3.98;68.41;101059.16;5087970;28;20428;-65
2021/12/27 06:45:59;;;;;;;22.30;14.55;;;;;;;3.84;68.10;101051.13;5074812;28;20492;-65
2021/12/27 06:48:26;;;;;;;26.58;15.60;;;;;;;4.01;67.94;101043.25;5081866;28;20413;-64
2021/12/27 06:50:53;;;;;;;21.80;13.27;;;;;;;3.73;68.75;101049.00;5087881;28;20416;-64
2021/12/27 06:53:21;;;;;;;23.80;14.63;;;;;;;3.72;68.94;101053.41;5087872;28;20508;-64
2021/12/27 06:55:49;;;;;;;24.90;14.20;;;;;;;3.79;68.58;101048.69;5089086;28;20421;-64
2021/12/27 06:58:16;;;;;;;24.98;14.77;;;;;;;3.94;67.94;101047.97;5089050;28;20408;-65
2021/12/27 07:00:44;;;;;;;24.55;14.70;;;;;;;3.87;68.14;101048.34;5088952;28;20436;-64
2021/12/27 07:03:11;;;;;;;24.52;14.68;;;;;;;4.05;67.34;101041.31;5089157;28;20419;-64
2021/12/27 07:05:38;;;;;;;25.27;15.65;;;;;;;3.86;68.17;101049.28;5088535;28;20409;-65
2021/12/27 07:08:05;;;;;;;24.45;14.48;;;;;;;3.96;67.85;101043.47;5089098;28;20500;-64
2021/12/27 07:10:32;;;;;;;27.02;15.25;;;;;;;3.96;67.92;101040.03;5087660;28;20503;-65
2021/12/27 07:13:02;;;;;;;25.60;15.40;;;;;;;3.92;68.02;101038.47;5088704;28;20416;-64
2021/12/27 07:15:29;;;;;;;26.90;16.02;;;;;;;3.91;68.37;101042.84;5088448;28;20408;-64
2021/12/27 07:17:56;;;;;;;26.38;15.45;;;;;;;3.88;68.13;101047.44;5088515;28;20756;-64
2021/12/27 07:20:23;;;;;;;24.65;13.63;;;;;;;3.60;68.79;101043.53;5089024;28;20504;-65
2021/12/27 07:22:50;;;;;;;28.47;16.30;;;;;;;3.62;69.39;101044.28;5089160;28;20485;-65
2021/12/27 07:25:18;;;;;;;28.67;15.98;;;;;;;3.56;69.39;101047.22;5088862;28;20889;-64
2021/12/27 07:27:45;;;;;;;29.08;17.35;;;;;;;3.65;69.42;101044.16;5088989;28;20489;-64
2021/12/27 07:30:14;;;;;;;34.55;18.33;;;;;;;3.87;68.99;101037.84;5088653;28;20978;-64
2021/12/27 07:32:41;;;;;;;26.75;15.18;;;;;;;3.82;68.75;101043.31;5087738;28;20402;-64
2021/12/27 07:35:09;;;;;;;23.42;14.73;;;;;;;3.67;69.09;101050.19;5088730;28;20944;-64
2021/12/27 07:37:37;;;;;;;30.48;15.90;;;;;;;3.57;69.65;101041.91;5088974;28;20428;-64
2021/12/27 07:40:04;;;;;;;30.10;16.67;;;;;;;3.53;70.00;101034.28;5088656;28;20414;-64
2021/12/27 07:42:31;;;;;;;34.05;17.42;;;;;;;3.69;69.51;101036.97;5088723;28;20516;-64
2021/12/27 07:44:58;;;;;;;31.65;17.50;;;;;;;3.54;69.66;101022.88;5091769;28;20409;-64
2021/12/27 07:47:27;;;;;;;30.88;17.77;;;;;;;3.44;70.48;101017.22;5076738;28;20857;-64
2021/12/27 07:49:54;;;;;;;33.75;19.63;;;;;;;3.68;70.08;101019.56;5092634;28;20485;-64
2021/12/27 07:52:21;;;;;;;26.73;15.63;;;;;;;3.51;69.75;101017.78;5092524;28;20492;-64
2021/12/27 07:54:48;;;;;;;31.10;16.70;;;;;;;3.59;69.70;101018.25;5092267;28;20492;-64
2021/12/27 07:57:15;;;;;;;27.67;15.95;;;;;;;3.62;69.74;101012.84;5092615;28;20441;-64
2021/12/27 07:59:42;;;;;;;28.85;16.42;;;;;;;3.79;69.05;101020.75;5091888;28;20871;-64
2021/12/27 08:02:11;;;;;;;26.90;15.80;;;;;;;3.59;69.35;101026.97;5092085;28;20425;-64
2021/12/27 08:04:39;;;;;;;29.67;16.80;;;;;;;3.76;69.24;101025.28;5091751;28;20416;-64
2021/12/27 08:07:06;;;;;;;29.98;16.77;;;;;;;3.84;69.21;101011.81;5091680;28;20492;-64
2021/12/27 08:09:33;;;;;;;34.20;18.45;;;;;;;3.69;69.37;101027.38;5091844;28;20428;-64
2021/12/27 08:12:00;;;;;;;38.93;21.43;;;;;;;3.82;68.97;101027.59;5092011;28;20451;-64
2021/12/27 08:14:27;;;;;;;35.17;18.45;;;;;;;3.80;68.81;101035.53;5091617;28;20411;-64
2021/12/27 08:16:54;;;;;;;38.13;19.10;;;;;;;3.90;68.64;101043.78;5091588;28;20437;-64
2021/12/27 08:19:21;;;;;;;38.95;21.27;;;;;;;4.12;68.46;101046.19;5091855;28;20496;-64
2021/12/27 08:21:49;;;;;;;39.93;19.63;;;;;;;3.99;68.67;101047.72;5091808;28;20430;-64
2021/12/27 08:24:16;;;;;;;28.35;15.80;;;;;;;3.88;68.25;101058.75;5091505;28;20406;-64
2021/12/27 08:26:43;;;;;;;38.40;18.93;;;;;;;3.88;68.91;101039.56;5091311;28;20790;-64
2021/12/27 08:29:12;;;;;;;38.92;19.58;;;;;;;4.14;68.43;101039.09;5089980;28;20527;-64
2021/12/27 08:31:39;;;;;;;34.28;19.67;;;;;;;4.14;67.56;101044.34;5091055;28;20423;-64
2021/12/27 08:34:06;;;;;;;31.98;16.35;;;;;;;3.86;68.28;101050.13;5091654;28;20413;-65
2021/12/27 08:36:34;;;;;;;36.53;19.00;;;;;;;3.88;68.64;101045.66;5091468;28;20416;-65
2021/12/27 08:39:03;;;;;;;35.95;19.75;;;;;;;3.84;68.42;101033.63;5089468;28;20436;-65
2021/12/27 08:41:30;;;;;;;39.45;22.98;;;;;;;3.82;69.15;101027.59;5091067;28;21016;-64
2021/12/27 08:43:58;;;;;;;35.80;20.95;;;;;;;4.00;68.81;101028.47;5089805;28;20421;-64
2021/12/27 08:46:25;;;;;;;40.67;21.58;;;;;;;4.02;68.42;101034.47;5076628;28;20401;-65
2021/12/27 08:48:52;;;;;;;37.67;21.87;;;;;;;3.99;68.02;101032.00;5091496;28;20409;-64
2021/12/27 08:51:19;;;;;;;42.13;23.40;;;;;;;4.25;67.77;101024.59;5091099;28;20409;-65
2021/12/27 08:53:46;;;;;;;35.25;19.85;;;;;;;4.14;67.65;101036.47;5091588;28;20432;-64
2021/12/27 08:56:14;;;;;;;35.92;19.20;;;;;;;4.26;67.59;101031.50;5090101;28;20429;-64
2021/12/27 08:58:41;;;;;;;30.50;17.23;;;;;;;4.18;67.68;101031.94;5089040;28;21002;-64
2021/12/27 09:01:08;;;;;;;34.40;18.08;;;;;;;4.17;68.04;101027.59;5089622;28;20500;-64
2021/12/27 09:03:36;;;;;;;32.38;17.20;;;;;;;4.35;67.17;101023.19;5090810;28;20417;-65
2021/12/27 09:06:03;;;;;;;31.08;20.48;;;;;;;4.08;67.61;101012.34;5089147;28;20495;-64
2021/12/27 09:08:30;;;;;;;27.17;16.55;;;;;;;4.16;67.57;101013.63;5090565;28;20420;-64
2021/12/27 09:10:58;;;;;;;26.52;15.65;;;;;;;4.33;66.89;101011.91;5090887;28;20496;-64
2021/12/27 09:13:30;;;;;;;27.45;16.55;;;;;;;4.26;66.79;101013.16;5091330;28;20492;-64
2021/12/27 09:16:00;;;;;;;27.30;17.40;;;;;;;4.30;66.94;101004.19;5090530;28;20875;-64
2021/12/27 09:18:28;;;;;;;24.13;15.90;;;;;;;4.34;66.83;101010.97;5090850;28;20413;-64
2021/12/27 09:20:55;;;;;;;22.80;14.80;;;;;;;4.24;66.68;101001.91;5090507;28;20500;-65
2021/12/27 09:23:22;;;;;;;26.95;16.58;;;;;;;4.33;66.32;100991.78;5090666;28;20432;-64
2021/12/27 09:25:49;;;;;;;28.50;18.60;;;;;;;4.48;66.15;100979.66;5090574;28;22123;-64
2021/12/27 09:28:16;;;;;;;34.03;21.05;;;;;;;4.46;66.02;100985.88;5090392;28;20500;-65
2021/12/27 09:30:45;;;;;;;22.60;14.32;;;;;;;4.37;66.08;100963.63;5090217;28;20413;-64
2021/12/27 09:33:12;;;;;;;22.85;15.65;;;;;;;4.28;66.67;100982.44;5089228;28;20497;-64
2021/12/27 09:35:40;;;;;;;23.80;14.50;;;;;;;4.17;66.64;100980.41;5090716;28;20488;-64
2021/12/27 09:38:08;;;;;;;22.25;13.57;;;;;;;4.20;66.52;100978.47;5090543;28;20488;-64
2021/12/27 09:40:35;;;;;;;22.65;14.60;;;;;;;4.29;66.54;100969.25;5090181;28;20413;-64
2021/12/27 09:43:03;;;;;;;24.33;16.60;;;;;;;4.46;66.30;100973.63;5089991;28;20585;-64
2021/12/27 09:45:30;;;;;;;21.50;14.10;;;;;;;4.51;65.76;100957.66;5090089;28;20488;-64
2021/12/27 09:47:58;;;;;;;17.97;12.80;;;;;;;4.51;65.35;100963.72;5074977;28;20409;-64
2021/12/27 09:50:30;;;;;;;18.77;13.43;;;;;;;4.69;64.73;100971.56;5090298;28;20405;-64
2021/12/27 09:52:57;;;;;;;21.55;15.05;;;;;;;4.81;64.38;100965.63;5089619;28;20500;-64
2021/12/27 09:55:26;;;;;;;21.77;13.75;;;;;;;4.56;64.53;100964.34;5089879;28;20492;-64
2021/12/27 09:57:54;;;;;;;22.02;14.00;;;;;;;4.46;65.07;100960.53;5090016;28;20413;-64
2021/12/27 10:00:21;;;;;;;20.05;13.93;;;;;;;4.37;65.74;100959.22;5089808;28;20511;-66
2021/12/27 10:02:51;;;;;;;24.27;15.40;;;;;;;4.38;65.62;100952.22;5089940;28;20431;-63
2021/12/27 10:05:20;;;;;;;23.75;14.73;;;;;;;4.33;65.93;100960.31;5089679;28;20417;-64
2021/12/27 10:07:47;;;;;;;28.48;17.38;;;;;;;4.35;65.60;100950.56;5089544;28;20482;-64
2021/12/27 10:10:14;;;;;;;40.40;23.38;;;;;;;4.54;65.41;100945.22;5089422;28;20444;-64
2021/12/27 10:12:41;;;;;;;25.00;16.20;;;;;;;4.67;65.26;100952.41;5089374;28;20799;-64
2021/12/27 10:15:10;;;;;;;23.58;15.50;;;;;;;4.81;64.44;100944.63;5089613;28;20416;-64
2021/12/27 10:17:38;;;;;;;20.42;13.32;;;;;;;4.73;64.42;100952.09;5089353;28;20422;-64
2021/12/27 10:20:14;;;;;;;26.00;17.60;;;;;;;4.86;64.12;100945.22;5088162;28;20503;-63
2021/12/27 10:22:45;;;;;;;33.25;21.20;;;;;;;4.95;63.81;100942.09;5086499;28;20503;-64
2021/12/27 10:25:16;;;;;;;29.17;19.48;;;;;;;5.01;63.95;100951.41;5086721;28;20432;-64
2021/12/27 10:27:43;;;;;;;22.23;16.40;;;;;;;4.81;63.87;100942.84;5085620;28;21146;-64
2021/12/27 10:30:13;;;;;;;18.83;12.82;;;;;;;4.67;64.29;100958.50;5086499;28;20500;-63
2021/12/27 10:32:41;;;;;;;15.93;11.07;;;;;;;4.81;63.38;100939.38;5088387;28;20787;-63
2021/12/27 10:35:09;;;;;;;15.73;12.18;;;;;;;4.74;63.37;100933.59;5088924;28;20862;-64
2021/12/27 10:37:37;;;;;;;20.00;14.82;;;;;;;4.61;63.70;100928.19;5089884;28;20480;-64
2021/12/27 10:40:08;;;;;;;17.38;13.20;;;;;;;4.76;63.68;100923.88;5089461;28;20409;-64
2021/12/27 10:42:37;;;;;;;14.68;11.13;;;;;;;4.84;63.05;100919.97;5089360;28;20425;-64
2021/12/27 10:45:07;;;;;;;27.58;19.45;;;;;;;4.74;63.06;100915.22;5089407;28;20837;-63
2021/12/27 10:47:44;;;;;;;29.88;21.65;;;;;;;4.94;62.76;100919.38;5089584;28;20504;-63
2021/12/27 10:50:14;;;;;;;26.10;20.10;;;;;;;5.18;62.48;100911.91;5089295;28;20937;-64
2021/12/27 10:52:47;;;;;;;21.42;17.17;;;;;;;5.12;62.92;100909.63;5070669;28;20496;-65
2021/12/27 10:55:17;;;;;;;19.45;15.57;;;;;;;4.98;63.13;100913.03;5089113;28;20488;-64
2021/12/27 10:57:44;;;;;;;21.30;15.68;;;;;;;4.72;64.06;100903.97;5089254;28;20492;-64
2021/12/27 11:00:21;;;;;;;33.67;24.23;;;;;;;4.82;63.57;100893.81;5089111;28;20408;-63
2021/12/27 11:02:48;;;;;;;20.08;15.73;;;;;;;4.46;64.82;100892.31;5088784;28;20429;-63
2021/12/27 11:05:17;;;;;;;32.75;22.58;;;;;;;4.47;64.78;100893.16;5088894;28;20957;-65
2021/12/27 11:08:05;;;;;;;23.40;17.40;;;;;;;4.43;64.77;100894.25;5089093;28;20500;-64
2021/12/27 11:10:36;;;;;;;25.30;18.48;;;;;;;4.65;64.23;100889.50;5088954;28;20454;-64
2021/12/27 11:13:04;;;;;;;26.27;20.10;;;;;;;4.87;63.79;100891.78;5088884;28;20920;-64
2021/12/27 11:15:34;;;;;;;20.42;14.25;;;;;;;4.67;64.13;100894.69;5089155;28;20405;-64
2021/12/27 11:18:02;;;;;;;32.95;26.45;;;;;;;4.82;62.97;100899.06;5089959;28;20409;-65
2021/12/27 11:20:29;;;;;;;32.97;27.53;;;;;;;5.03;62.30;100902.28;5091484;28;20495;-65